createdAt,value
2023-01-25T00:01:56.326Z,13.50
2023-01-25T00:04:24.362Z,13.83
2023-01-25T00:06:52.130Z,12.43
2023-01-25T00:09:19.960Z,13.60
2023-01-25T00:11:47.845Z,12.70
2023-01-25T00:14:15.961Z,12.70
2023-01-25T00:16:44.947Z,13.70
2023-01-25T00:19:12.465Z,12.77
2023-01-25T00:21:39.985Z,13.53
2023-01-25T00:24:07.815Z,13.70
2023-01-25T00:26:36.018Z,12.57
2023-01-25T00:29:03.747Z,12.33
2023-01-25T00:31:37.762Z,12.60
2023-01-25T00:34:19.872Z,11.93
2023-01-25T00:36:47.425Z,13.70
2023-01-25T00:39:15.042Z,12.17
2023-01-25T00:41:42.529Z,13.03
2023-01-25T00:44:09.981Z,12.13
2023-01-25T00:46:37.444Z,12.93
2023-01-25T00:49:04.928Z,12.77
2023-01-25T00:51:34.145Z,12.70
2023-01-25T00:54:01.716Z,12.47
2023-01-25T00:56:29.192Z,12.10
2023-01-25T00:58:56.636Z,11.83
2023-01-25T01:01:24.037Z,13.30
2023-01-25T01:03:52.702Z,12.23
2023-01-25T01:06:20.226Z,12.27
2023-01-25T01:08:50.401Z,12.50
2023-01-25T01:11:17.809Z,11.03
2023-01-25T01:13:45.472Z,12.03
2023-01-25T01:16:13.857Z,11.70
2023-01-25T01:18:50.982Z,11.97
2023-01-25T01:21:18.468Z,10.70
2023-01-25T01:23:46.007Z,11.47
2023-01-25T01:26:16.019Z,12.67
2023-01-25T01:28:44.123Z,12.13
2023-01-25T01:31:14.427Z,12.00
2023-01-25T01:33:41.906Z,12.73
2023-01-25T01:36:09.947Z,11.73
2023-01-25T01:38:37.525Z,11.60
2023-01-25T01:41:05.249Z,11.80
2023-01-25T01:43:34.505Z,10.10
2023-01-25T01:46:04.501Z,11.23
2023-01-25T01:48:37.909Z,10.40
2023-01-25T01:51:09.517Z,10.97
2023-01-25T01:53:37.099Z,10.27
2023-01-25T01:56:08.101Z,11.27
2023-01-25T01:58:37.940Z,10.53
2023-01-25T02:01:05.702Z,10.00
2023-01-25T02:03:33.926Z,9.43
2023-01-25T02:06:03.006Z,9.40
2023-01-25T02:08:33.186Z,9.90
2023-01-25T02:11:01.478Z,9.23
2023-01-25T02:13:29.097Z,9.27
2023-01-25T02:16:00.807Z,9.50
2023-01-25T02:18:28.379Z,9.60
2023-01-25T02:20:57.983Z,8.30
2023-01-25T02:23:28.249Z,9.10
2023-01-25T02:26:06.554Z,8.87
2023-01-25T02:28:40.720Z,10.13
2023-01-25T02:31:08.327Z,8.60
2023-01-25T02:33:35.974Z,9.00
2023-01-25T02:36:16.681Z,9.03
2023-01-25T02:38:46.644Z,8.37
2023-01-25T02:41:17.601Z,8.93
2023-01-25T02:43:47.696Z,9.13
2023-01-25T02:46:16.725Z,8.93
2023-01-25T02:48:45.029Z,8.47
2023-01-25T02:51:13.295Z,8.30
2023-01-25T02:53:41.405Z,8.00
2023-01-25T02:56:09.081Z,8.47
2023-01-25T02:58:37.874Z,7.90
2023-01-25T03:01:05.749Z,8.53
2023-01-25T03:03:36.145Z,7.90
2023-01-25T03:06:03.779Z,7.67
2023-01-25T03:08:31.272Z,7.87
2023-01-25T03:10:59.110Z,8.40
2023-01-25T03:13:26.624Z,8.87
2023-01-25T03:16:00.070Z,8.47
2023-01-25T03:18:27.969Z,8.93
2023-01-25T03:20:55.946Z,8.17
2023-01-25T03:23:23.612Z,9.00
2023-01-25T03:25:51.376Z,7.47
2023-01-25T03:28:18.936Z,8.77
2023-01-25T03:30:49.907Z,8.10
2023-01-25T03:33:18.712Z,8.73
2023-01-25T03:35:48.985Z,8.37
2023-01-25T03:38:16.433Z,8.77
2023-01-25T03:40:43.951Z,8.63
2023-01-25T03:43:11.653Z,10.30
2023-01-25T03:45:41.219Z,8.60
2023-01-25T03:48:09.127Z,8.70
2023-01-25T03:50:37.907Z,8.47
2023-01-25T03:53:09.994Z,9.00
2023-01-25T03:55:37.560Z,8.47
2023-01-25T03:58:05.049Z,9.10
2023-01-25T04:00:32.872Z,9.13
2023-01-25T04:03:00.943Z,8.63
2023-01-25T04:05:29.200Z,8.30
2023-01-25T04:07:58.014Z,8.30
2023-01-25T04:10:25.562Z,8.50
2023-01-25T04:12:56.247Z,8.70
2023-01-25T04:15:25.755Z,8.43
2023-01-25T04:17:53.415Z,8.43
2023-01-25T04:20:21.014Z,8.20
2023-01-25T04:22:48.507Z,9.00
2023-01-25T04:25:17.699Z,8.30
2023-01-25T04:27:48.627Z,8.70
2023-01-25T04:30:16.662Z,7.33
2023-01-25T04:32:47.392Z,7.33
2023-01-25T04:35:20.432Z,8.13
2023-01-25T04:37:57.245Z,8.20
2023-01-25T04:40:26.636Z,8.43
2023-01-25T04:42:59.138Z,7.90
2023-01-25T04:45:27.200Z,7.50
2023-01-25T04:47:59.141Z,7.67
2023-01-25T04:50:26.812Z,8.30
2023-01-25T04:52:54.423Z,7.90
2023-01-25T04:55:21.846Z,8.27
2023-01-25T04:57:51.786Z,8.53
2023-01-25T05:00:20.175Z,8.77
2023-01-25T05:02:48.327Z,8.47
2023-01-25T05:05:16.034Z,8.80
2023-01-25T05:07:44.001Z,8.23
2023-01-25T05:10:11.879Z,8.80
2023-01-25T05:12:39.548Z,8.77
2023-01-25T05:15:09.310Z,9.17
2023-01-25T05:17:37.051Z,9.53
2023-01-25T05:20:07.466Z,8.83
2023-01-25T05:22:35.297Z,9.30
2023-01-25T05:25:04.927Z,8.40
2023-01-25T05:27:31.741Z,8.80
2023-01-25T05:29:59.534Z,9.13
2023-01-25T05:32:28.530Z,9.00
2023-01-25T05:34:56.221Z,8.47
2023-01-25T05:37:23.704Z,8.37
2023-01-25T05:39:51.242Z,9.33
2023-01-25T05:42:20.510Z,8.13
2023-01-25T05:44:48.368Z,8.77
2023-01-25T05:47:17.325Z,8.87
2023-01-25T05:49:50.174Z,8.23
2023-01-25T05:52:18.112Z,10.37
2023-01-25T05:54:45.725Z,10.30
2023-01-25T05:57:14.641Z,13.37
2023-01-25T05:59:42.341Z,11.50
2023-01-25T06:05:28.672Z,10.27
2023-01-25T06:07:56.629Z,8.17
2023-01-25T06:10:25.450Z,8.00
2023-01-25T06:12:58.058Z,8.57
2023-01-25T06:15:25.660Z,9.13
2023-01-25T06:17:55.500Z,6.73
2023-01-25T06:20:23.485Z,7.10
2023-01-25T06:22:52.859Z,6.57
2023-01-25T06:25:20.479Z,7.37
2023-01-25T06:27:48.509Z,7.53
2023-01-25T06:30:17.965Z,7.57
2023-01-25T06:32:45.481Z,6.80
2023-01-25T06:35:12.964Z,7.10
2023-01-25T06:37:40.593Z,6.97
2023-01-25T06:40:10.155Z,6.97
2023-01-25T06:42:37.690Z,6.67
2023-01-25T06:45:05.771Z,7.53
2023-01-25T06:47:33.576Z,7.03
2023-01-25T06:50:01.773Z,6.87
2023-01-25T06:52:30.594Z,7.60
2023-01-25T06:54:58.122Z,8.23
2023-01-25T06:57:27.116Z,7.57
2023-01-25T06:59:54.625Z,7.17
2023-01-25T07:02:22.356Z,7.83
2023-01-25T07:04:49.991Z,7.63
2023-01-25T07:07:17.572Z,6.63
2023-01-25T07:09:46.932Z,7.10
2023-01-25T07:12:14.397Z,8.10
2023-01-25T07:14:48.012Z,7.30
2023-01-25T07:17:15.492Z,6.97
2023-01-25T07:19:42.965Z,8.33
2023-01-25T07:22:10.426Z,7.03
2023-01-25T07:24:39.473Z,16.20
2023-01-25T07:27:07.200Z,11.00
2023-01-25T07:29:37.485Z,9.77
2023-01-25T07:32:07.285Z,9.63
2023-01-25T07:34:34.965Z,18.10
2023-01-25T07:37:02.752Z,8.77
2023-01-25T07:39:30.237Z,7.80
2023-01-25T07:41:57.783Z,7.63
2023-01-25T07:44:25.332Z,7.50
2023-01-25T07:46:53.980Z,8.20
2023-01-25T07:49:22.906Z,8.67
2023-01-25T07:51:50.468Z,8.63
2023-01-25T07:54:17.989Z,8.17
2023-01-25T07:56:45.755Z,8.67
2023-01-25T07:59:14.155Z,8.50
2023-01-25T08:01:50.853Z,7.97
2023-01-25T08:04:18.510Z,9.10
2023-01-25T08:06:49.585Z,8.77
2023-01-25T08:09:20.168Z,8.20
2023-01-25T08:11:49.435Z,9.98
2023-01-25T08:14:17.945Z,9.50
2023-01-25T08:16:45.843Z,9.97
2023-01-25T08:19:13.650Z,8.33
2023-01-25T08:21:41.310Z,8.63
2023-01-25T08:24:10.938Z,9.50
2023-01-25T08:26:38.735Z,8.60
2023-01-25T08:29:06.736Z,9.30
2023-01-25T08:31:35.328Z,21.83
2023-01-25T08:34:05.763Z,10.60
2023-01-25T08:36:34.228Z,9.53
2023-01-25T08:39:02.916Z,11.10
2023-01-25T08:41:47.959Z,15.77
2023-01-25T08:44:16.779Z,15.47
2023-01-25T08:46:45.736Z,10.00
2023-01-25T08:49:20.956Z,9.65
2023-01-25T08:51:50.345Z,8.37
2023-01-25T08:54:17.889Z,8.67
2023-01-25T08:56:45.480Z,9.30
2023-01-25T08:59:16.543Z,10.50
2023-01-25T09:01:58.418Z,9.93
2023-01-25T09:04:28.362Z,9.87
2023-01-25T09:06:58.382Z,10.17
2023-01-25T09:09:26.243Z,9.40
2023-01-25T09:11:53.772Z,9.57
2023-01-25T09:14:21.416Z,9.33
2023-01-25T09:16:49.187Z,11.27
2023-01-25T09:19:18.016Z,14.70
2023-01-25T09:21:49.700Z,12.50
2023-01-25T09:24:17.689Z,12.17
2023-01-25T09:26:55.704Z,10.50
2023-01-25T09:29:28.439Z,10.80
2023-01-25T09:31:56.455Z,10.20
2023-01-25T09:34:25.773Z,10.00
2023-01-25T09:36:53.394Z,11.13
2023-01-25T09:39:21.182Z,10.03
2023-01-25T09:42:14.612Z,11.73
2023-01-25T09:44:49.187Z,10.10
2023-01-25T09:47:20.341Z,10.07
2023-01-25T09:50:01.882Z,11.07
2023-01-25T09:52:39.894Z,11.27
2023-01-25T09:55:13.394Z,10.43
2023-01-25T09:57:42.369Z,11.40
2023-01-25T10:00:17.020Z,10.80
2023-01-25T10:02:47.564Z,10.33
2023-01-25T10:05:18.210Z,11.47
2023-01-25T10:07:51.158Z,10.50
2023-01-25T10:10:20.127Z,11.40
2023-01-25T10:12:47.844Z,11.80
2023-01-25T10:15:21.881Z,11.27
2023-01-25T10:17:58.333Z,11.07
2023-01-25T10:20:32.940Z,10.33
2023-01-25T10:23:08.050Z,10.33
2023-01-25T10:25:37.334Z,11.37
2023-01-25T10:28:15.625Z,12.47
2023-01-25T10:31:04.969Z,10.33
2023-01-25T10:33:38.642Z,10.60
2023-01-25T10:36:10.345Z,11.27
2023-01-25T10:38:42.302Z,13.77
2023-01-25T10:41:16.214Z,17.10
2023-01-25T10:43:46.415Z,13.40
2023-01-25T10:46:26.837Z,11.97
2023-01-25T10:48:54.512Z,11.57
2023-01-25T10:51:41.083Z,11.13
2023-01-25T10:54:16.484Z,11.47
2023-01-25T10:56:45.659Z,13.00
2023-01-25T10:59:18.227Z,11.33
2023-01-25T11:01:46.185Z,11.17
2023-01-25T11:04:24.754Z,10.73
2023-01-25T11:06:54.067Z,11.40
2023-01-25T11:09:33.101Z,11.07
2023-01-25T11:12:01.396Z,11.03
2023-01-25T11:14:29.986Z,12.47
2023-01-25T11:16:58.682Z,11.60
2023-01-25T11:19:28.331Z,10.97
2023-01-25T11:21:57.876Z,11.13
2023-01-25T11:24:29.370Z,12.10
2023-01-25T11:27:17.670Z,12.10
2023-01-25T11:29:47.093Z,12.17
2023-01-25T11:32:17.111Z,11.80
2023-01-25T11:34:47.264Z,11.80
2023-01-25T11:37:38.157Z,12.73
2023-01-25T11:40:13.299Z,11.30
2023-01-25T11:42:48.883Z,11.73
2023-01-25T11:45:34.434Z,11.97
2023-01-25T11:48:18.175Z,12.53
2023-01-25T11:50:50.719Z,11.97
2023-01-25T11:53:38.363Z,12.20
2023-01-25T11:56:10.582Z,12.97
2023-01-25T11:58:50.211Z,13.00
2023-01-25T12:01:22.354Z,13.23
2023-01-25T12:03:56.116Z,13.00
2023-01-25T12:06:26.185Z,11.93
2023-01-25T12:09:01.123Z,11.43
2023-01-25T12:11:36.086Z,12.70
2023-01-25T12:14:11.551Z,12.77
2023-01-25T12:16:44.822Z,12.43
2023-01-25T12:19:24.138Z,14.53
2023-01-25T12:21:58.768Z,13.90
2023-01-25T12:24:33.579Z,12.57
2023-01-25T12:27:06.050Z,13.53
2023-01-25T12:29:37.257Z,13.57
2023-01-25T12:32:06.965Z,12.77
2023-01-25T12:34:36.784Z,13.47
2023-01-25T12:37:08.031Z,13.10
2023-01-25T12:39:40.961Z,13.13
2023-01-25T12:42:13.668Z,12.83
2023-01-25T12:44:43.584Z,13.57
2023-01-25T12:47:15.283Z,13.17
2023-01-25T12:49:45.243Z,13.03
2023-01-25T12:52:18.777Z,13.43
2023-01-25T12:54:47.473Z,15.13
2023-01-25T12:57:25.826Z,16.53
2023-01-25T12:59:58.321Z,15.07
2023-01-25T13:02:44.275Z,15.13
2023-01-25T13:05:17.392Z,13.90
2023-01-25T13:07:54.350Z,14.48
2023-01-25T13:10:25.915Z,15.10
2023-01-25T13:12:56.891Z,13.73
2023-01-25T13:15:51.608Z,13.90
2023-01-25T13:18:39.399Z,13.00
2023-01-25T13:21:34.894Z,13.47
2023-01-25T13:24:17.291Z,13.27
2023-01-25T13:26:48.657Z,12.70
2023-01-25T13:29:40.151Z,14.40
2023-01-25T13:32:12.758Z,13.47
2023-01-25T13:34:59.541Z,12.47
2023-01-25T13:37:35.928Z,15.27
2023-01-25T13:40:06.205Z,15.27
2023-01-25T13:42:34.728Z,16.57
2023-01-25T13:45:05.477Z,15.40
2023-01-25T13:47:37.799Z,13.87
2023-01-25T13:50:11.093Z,13.37
2023-01-25T13:52:38.745Z,15.60
2023-01-25T13:55:17.546Z,15.47
2023-01-25T13:57:45.040Z,15.33
2023-01-25T14:00:17.083Z,15.40
2023-01-25T14:02:47.297Z,15.63
2023-01-25T14:05:23.608Z,13.33
2023-01-25T14:07:52.316Z,13.50
2023-01-25T14:10:23.907Z,13.48
2023-01-25T14:12:53.682Z,13.37
2023-01-25T14:15:25.180Z,13.83
2023-01-25T14:18:06.430Z,13.23
2023-01-25T14:20:37.245Z,14.83
2023-01-25T14:23:07.135Z,14.07
2023-01-25T14:25:34.892Z,14.67
2023-01-25T14:28:06.242Z,14.63
2023-01-25T14:30:37.312Z,13.80
2023-01-25T14:33:06.289Z,14.43
2023-01-25T14:35:54.323Z,14.37
2023-01-25T14:38:24.441Z,13.57
2023-01-25T14:40:53.029Z,12.87
2023-01-25T14:43:20.660Z,12.93
2023-01-25T14:45:48.163Z,14.50
2023-01-25T14:48:31.854Z,15.07
2023-01-25T14:51:10.516Z,14.87
2023-01-25T14:53:39.514Z,14.87
2023-01-25T14:56:17.954Z,15.13
2023-01-25T14:58:50.893Z,14.17
2023-01-25T15:01:29.949Z,16.90
2023-01-25T15:03:57.624Z,13.47
2023-01-25T15:06:26.619Z,15.67
2023-01-25T15:08:54.362Z,15.33
2023-01-25T15:11:45.257Z,14.80
2023-01-25T15:14:17.900Z,12.87
2023-01-25T15:16:45.838Z,13.50
2023-01-25T15:19:23.858Z,15.00
2023-01-25T15:21:52.818Z,14.60
2023-01-25T15:24:20.783Z,21.83
2023-01-25T15:26:50.561Z,20.90
2023-01-25T15:29:20.875Z,14.00
2023-01-25T15:31:52.269Z,14.23
2023-01-25T15:34:24.364Z,13.87
2023-01-25T15:37:01.424Z,13.77
2023-01-25T15:39:35.579Z,14.83
2023-01-25T15:42:03.446Z,14.10
2023-01-25T15:44:31.040Z,14.57
2023-01-25T15:47:03.667Z,13.77
2023-01-25T15:49:36.909Z,13.83
2023-01-25T15:52:06.082Z,14.33
2023-01-25T15:54:33.734Z,13.00
2023-01-25T15:57:01.787Z,13.40
2023-01-25T15:59:29.658Z,11.67
2023-01-25T16:01:57.327Z,12.10
2023-01-25T16:04:26.295Z,10.40
2023-01-25T16:06:54.919Z,12.47
2023-01-25T16:09:25.357Z,9.93
2023-01-25T16:11:54.991Z,13.27
2023-01-25T16:14:23.702Z,16.50
2023-01-25T16:16:52.294Z,18.50
2023-01-25T16:19:20.737Z,14.93
2023-01-25T16:21:53.932Z,10.43
2023-01-25T16:24:23.583Z,13.67
2023-01-25T16:26:55.620Z,15.73
2023-01-25T16:29:23.733Z,14.87
2023-01-25T16:31:52.647Z,15.17
2023-01-25T16:34:22.048Z,12.20
2023-01-25T16:36:51.138Z,13.53
2023-01-25T16:39:20.458Z,8.77
2023-01-25T16:41:48.230Z,13.40
2023-01-25T16:44:17.534Z,44.57
2023-01-25T16:46:45.157Z,32.80
2023-01-25T16:49:16.110Z,14.83
2023-01-25T16:51:45.295Z,11.07
2023-01-25T16:54:21.525Z,10.50
2023-01-25T16:56:51.818Z,13.37
2023-01-25T16:59:21.908Z,13.37
2023-01-25T17:01:49.352Z,14.47
2023-01-25T17:04:17.135Z,10.70
2023-01-25T17:06:49.143Z,10.57
2023-01-25T17:09:23.692Z,9.97
2023-01-25T17:11:55.549Z,9.00
2023-01-25T17:14:24.518Z,9.63
2023-01-25T17:16:53.614Z,9.10
2023-01-25T17:19:21.461Z,8.17
2023-01-25T17:21:49.024Z,9.07
2023-01-25T17:24:17.932Z,9.80
2023-01-25T17:26:45.835Z,9.90
2023-01-25T17:29:13.727Z,8.50
2023-01-25T17:31:44.414Z,8.03
2023-01-25T17:34:14.951Z,9.23
2023-01-25T17:36:43.533Z,9.07
2023-01-25T17:39:14.083Z,7.37
2023-01-25T17:41:41.843Z,7.37
2023-01-25T17:44:09.364Z,7.63
2023-01-25T17:46:37.518Z,8.47
2023-01-25T17:49:07.620Z,8.07
2023-01-25T17:51:36.272Z,8.07
2023-01-25T17:54:04.439Z,7.93
2023-01-25T17:56:32.171Z,9.97
2023-01-25T17:59:01.041Z,9.10
2023-01-25T18:01:29.697Z,9.87
2023-01-25T18:03:57.574Z,9.57
2023-01-25T18:06:27.751Z,10.47
2023-01-25T18:08:55.943Z,9.77
2023-01-25T18:11:24.574Z,9.83
2023-01-25T18:13:53.108Z,8.80
2023-01-25T18:16:22.222Z,7.70
2023-01-25T18:18:50.510Z,8.43
2023-01-25T18:21:22.141Z,10.60
2023-01-25T18:23:51.812Z,11.50
2023-01-25T18:26:20.371Z,9.20
2023-01-25T18:28:48.133Z,10.20
2023-01-25T18:31:17.403Z,9.80
2023-01-25T18:33:45.097Z,11.17
2023-01-25T18:36:14.557Z,10.37
2023-01-25T18:38:42.224Z,10.33
2023-01-25T18:41:11.455Z,10.03
2023-01-25T18:43:39.138Z,10.50
2023-01-25T18:46:06.952Z,9.73
2023-01-25T18:48:34.512Z,9.70
2023-01-25T18:51:06.249Z,10.87
2023-01-25T18:53:34.267Z,11.17
2023-01-25T18:56:02.564Z,10.43
2023-01-25T18:58:31.937Z,10.87
2023-01-25T19:01:03.707Z,10.80
2023-01-25T19:03:31.550Z,11.77
2023-01-25T19:05:59.530Z,11.10
2023-01-25T19:08:28.166Z,11.10
2023-01-25T19:11:01.579Z,12.10
2023-01-25T19:13:32.025Z,11.47
2023-01-25T19:16:02.250Z,10.60
2023-01-25T19:18:31.941Z,10.73
2023-01-25T19:21:00.021Z,11.73
2023-01-25T19:23:27.876Z,9.90
2023-01-25T19:25:55.537Z,9.43
2023-01-25T19:28:25.003Z,10.93
2023-01-25T19:30:52.984Z,9.50
2023-01-25T19:33:21.954Z,10.27
2023-01-25T19:35:49.463Z,14.93
2023-01-25T19:38:17.323Z,11.17
2023-01-25T19:40:44.897Z,10.00
2023-01-25T19:43:12.615Z,9.57
2023-01-25T19:45:40.262Z,11.03
2023-01-25T19:48:07.803Z,10.93
2023-01-25T19:50:37.253Z,9.73
2023-01-25T19:53:04.935Z,9.77
2023-01-25T19:55:32.511Z,10.50
2023-01-25T19:58:00.059Z,10.57
2023-01-25T20:00:27.641Z,9.50
2023-01-25T20:02:59.337Z,10.00
2023-01-25T20:05:32.061Z,10.03
2023-01-25T20:08:00.962Z,10.33
2023-01-25T20:10:28.405Z,9.77
2023-01-25T20:12:55.904Z,10.37
2023-01-25T20:15:23.552Z,9.70
2023-01-25T20:17:51.125Z,9.60
2023-01-25T20:20:18.771Z,9.67
2023-01-25T20:22:49.277Z,11.07
2023-01-25T20:25:18.169Z,10.90
2023-01-25T20:27:45.671Z,9.77
2023-01-25T20:30:13.367Z,10.53
2023-01-25T20:32:40.984Z,10.27
2023-01-25T20:35:09.164Z,11.63
2023-01-25T20:37:49.408Z,10.47
2023-01-25T20:40:18.864Z,12.67
2023-01-25T20:42:46.602Z,10.30
2023-01-25T20:45:17.039Z,10.83
2023-01-25T20:47:44.597Z,9.70
2023-01-25T20:50:12.439Z,9.73
2023-01-25T20:52:39.952Z,11.20
2023-01-25T20:55:07.850Z,10.87
2023-01-25T20:57:37.381Z,10.47
2023-01-25T21:00:05.646Z,10.40
2023-01-25T21:02:33.391Z,10.73
2023-01-25T21:05:00.947Z,11.13
2023-01-25T21:07:28.574Z,12.03
2023-01-25T21:09:56.198Z,10.80
2023-01-25T21:12:23.770Z,9.80
2023-01-25T21:14:52.657Z,10.23
2023-01-25T21:17:20.232Z,11.23
2023-01-25T21:19:48.961Z,10.27
2023-01-25T21:22:16.665Z,11.47
2023-01-25T21:24:44.124Z,12.00
2023-01-25T21:27:11.658Z,11.03
2023-01-25T21:29:39.142Z,10.53
2023-01-25T21:32:08.042Z,9.93
2023-01-25T21:34:35.663Z,11.13
2023-01-25T21:37:04.717Z,10.83
2023-01-25T21:39:32.325Z,10.40
2023-01-25T21:41:59.892Z,11.33
2023-01-25T21:44:45.178Z,11.40
2023-01-25T21:47:29.615Z,9.83
2023-01-25T21:50:17.892Z,10.37
2023-01-25T21:52:45.353Z,10.00
2023-01-25T21:55:12.844Z,10.43
2023-01-25T21:57:46.352Z,10.03
2023-01-25T22:00:15.961Z,10.93
2023-01-25T22:02:45.131Z,9.23
2023-01-25T22:05:12.665Z,9.93
2023-01-25T22:07:40.125Z,10.77
2023-01-25T22:10:08.110Z,10.73
2023-01-25T22:12:35.666Z,10.63
2023-01-25T22:15:03.183Z,10.63
2023-01-25T22:17:30.749Z,9.90
2023-01-25T22:19:59.624Z,9.67
2023-01-25T22:22:28.092Z,10.43
2023-01-25T22:24:56.738Z,10.20
2023-01-25T22:27:33.441Z,9.90
2023-01-25T22:30:01.060Z,9.77
2023-01-25T22:32:28.517Z,10.20
2023-01-25T22:34:56.200Z,10.00
2023-01-25T22:37:27.914Z,10.13
2023-01-25T22:39:58.430Z,10.53
2023-01-25T22:42:29.142Z,11.27
2023-01-25T22:44:56.686Z,10.20
2023-01-25T22:47:24.170Z,11.83
2023-01-25T22:49:51.615Z,12.00
2023-01-25T22:52:19.022Z,11.83
2023-01-25T22:54:50.219Z,10.97
2023-01-25T22:57:17.825Z,10.97
2023-01-25T22:59:46.112Z,10.60
2023-01-25T23:02:13.796Z,11.63
2023-01-25T23:04:41.312Z,10.67
2023-01-25T23:07:18.493Z,11.23
2023-01-25T23:09:51.402Z,12.47
2023-01-25T23:12:20.796Z,11.80
2023-01-25T23:14:51.307Z,11.67
2023-01-25T23:17:45.248Z,11.50
2023-01-25T23:20:13.568Z,11.43
2023-01-25T23:22:41.610Z,12.53
2023-01-25T23:25:10.014Z,12.40
2023-01-25T23:27:39.021Z,12.80
2023-01-25T23:30:09.237Z,12.23
2023-01-25T23:32:37.103Z,11.20
2023-01-25T23:35:04.947Z,11.60
2023-01-25T23:37:32.384Z,12.67
2023-01-25T23:39:59.819Z,12.53
2023-01-25T23:42:27.308Z,12.37
2023-01-25T23:44:56.131Z,11.43
2023-01-25T23:47:23.540Z,12.53
2023-01-25T23:49:51.016Z,11.20
2023-01-25T23:52:18.505Z,11.47
2023-01-25T23:54:46.077Z,11.67
2023-01-25T23:57:13.516Z,12.33
2023-01-25T23:59:41.033Z,12.53
